sensor_id;sensor_type;location;lat;lon;timestamp;temperature;humidity
43524;DHT22;29120;52.006;6.020;2022-11-06T00:01:07;9.80;99.90
43524;DHT22;29120;52.006;6.020;2022-11-06T00:03:34;9.80;99.90
43524;DHT22;29120;52.006;6.020;2022-11-06T00:05:59;9.80;99.90
43524;DHT22;29120;52.006;6.020;2022-11-06T00:08:47;9.80;99.90
43524;DHT22;29120;52.006;6.020;2022-11-06T00:11:15;9.80;99.90
43524;DHT22;29120;52.006;6.020;2022-11-06T00:13:41;9.80;99.90
43524;DHT22;29120;52.006;6.020;2022-11-06T00:16:11;9.70;99.90
43524;DHT22;29120;52.006;6.020;2022-11-06T00:18:38;9.70;99.90
43524;DHT22;29120;52.006;6.020;2022-11-06T00:23:36;9.60;99.90
43524;DHT22;29120;52.006;6.020;2022-11-06T00:26:13;9.60;99.90
43524;DHT22;29120;52.006;6.020;2022-11-06T00:28:39;9.60;99.90
43524;DHT22;29120;52.006;6.020;2022-11-06T00:31:10;9.60;99.90
43524;DHT22;29120;52.006;6.020;2022-11-06T00:33:36;9.60;99.90
43524;DHT22;29120;52.006;6.020;2022-11-06T00:36:03;9.70;99.90
43524;DHT22;29120;52.006;6.020;2022-11-06T00:38:29;9.70;99.90
43524;DHT22;29120;52.006;6.020;2022-11-06T00:40:55;9.80;99.90
43524;DHT22;29120;52.006;6.020;2022-11-06T00:43:20;9.80;99.90
43524;DHT22;29120;52.006;6.020;2022-11-06T00:45:46;9.90;99.90
43524;DHT22;29120;52.006;6.020;2022-11-06T00:48:11;9.90;99.90
43524;DHT22;29120;52.006;6.020;2022-11-06T00:50:37;9.90;99.90
43524;DHT22;29120;52.006;6.020;2022-11-06T00:53:03;9.90;99.90
43524;DHT22;29120;52.006;6.020;2022-11-06T00:55:28;9.90;99.90
43524;DHT22;29120;52.006;6.020;2022-11-06T00:57:54;9.90;99.90
43524;DHT22;29120;52.006;6.020;2022-11-06T01:00:19;9.90;99.90
43524;DHT22;29120;52.006;6.020;2022-11-06T01:02:45;9.80;99.90
43524;DHT22;29120;52.006;6.020;2022-11-06T01:05:12;9.80;99.90
43524;DHT22;29120;52.006;6.020;2022-11-06T01:07:38;9.80;99.90
43524;DHT22;29120;52.006;6.020;2022-11-06T01:10:05;9.80;99.90
43524;DHT22;29120;52.006;6.020;2022-11-06T01:12:32;9.80;99.90
43524;DHT22;29120;52.006;6.020;2022-11-06T01:14:58;9.80;99.90
43524;DHT22;29120;52.006;6.020;2022-11-06T01:17:24;9.70;99.90
43524;DHT22;29120;52.006;6.020;2022-11-06T01:19:49;9.70;99.90
43524;DHT22;29120;52.006;6.020;2022-11-06T01:22:15;9.60;99.90
43524;DHT22;29120;52.006;6.020;2022-11-06T01:24:41;9.60;99.90
43524;DHT22;29120;52.006;6.020;2022-11-06T01:27:08;9.60;99.90
43524;DHT22;29120;52.006;6.020;2022-11-06T01:29:34;9.60;99.90
43524;DHT22;29120;52.006;6.020;2022-11-06T01:31:59;9.60;99.90
43524;DHT22;29120;52.006;6.020;2022-11-06T01:34:25;9.60;99.90
43524;DHT22;29120;52.006;6.020;2022-11-06T01:36:51;9.60;99.90
43524;DHT22;29120;52.006;6.020;2022-11-06T01:39:17;9.60;99.90
43524;DHT22;29120;52.006;6.020;2022-11-06T01:41:48;9.70;99.90
43524;DHT22;29120;52.006;6.020;2022-11-06T01:46:59;9.80;99.90
43524;DHT22;29120;52.006;6.020;2022-11-06T01:49:26;9.80;99.90
43524;DHT22;29120;52.006;6.020;2022-11-06T01:51:56;9.80;99.90
43524;DHT22;29120;52.006;6.020;2022-11-06T01:54:24;9.90;99.90
43524;DHT22;29120;52.006;6.020;2022-11-06T01:56:53;9.90;99.90
43524;DHT22;29120;52.006;6.020;2022-11-06T01:59:22;9.90;99.90
43524;DHT22;29120;52.006;6.020;2022-11-06T02:01:49;9.90;99.90
43524;DHT22;29120;52.006;6.020;2022-11-06T02:04:25;9.90;99.90
43524;DHT22;29120;52.006;6.020;2022-11-06T02:06:52;9.80;99.90
43524;DHT22;29120;52.006;6.020;2022-11-06T02:09:18;9.70;99.90
43524;DHT22;29120;52.006;6.020;2022-11-06T02:11:53;9.70;99.90
43524;DHT22;29120;52.006;6.020;2022-11-06T02:14:33;9.70;99.90
43524;DHT22;29120;52.006;6.020;2022-11-06T02:17:14;9.60;99.90
43524;DHT22;29120;52.006;6.020;2022-11-06T02:22:59;9.50;99.90
43524;DHT22;29120;52.006;6.020;2022-11-06T02:25:39;9.50;99.90
43524;DHT22;29120;52.006;6.020;2022-11-06T02:29:01;9.50;99.90
43524;DHT22;29120;52.006;6.020;2022-11-06T02:31:03;9.50;99.90
43524;DHT22;29120;52.006;6.020;2022-11-06T02:33:37;9.60;99.90
43524;DHT22;29120;52.006;6.020;2022-11-06T02:36:10;9.60;99.90
43524;DHT22;29120;52.006;6.020;2022-11-06T02:38:42;9.70;99.90
43524;DHT22;29120;52.006;6.020;2022-11-06T02:41:11;9.70;99.90
43524;DHT22;29120;52.006;6.020;2022-11-06T02:43:41;9.80;99.90
43524;DHT22;29120;52.006;6.020;2022-11-06T02:46:12;9.70;99.90
43524;DHT22;29120;52.006;6.020;2022-11-06T02:48:51;9.70;99.90
43524;DHT22;29120;52.006;6.020;2022-11-06T02:51:21;9.80;99.90
43524;DHT22;29120;52.006;6.020;2022-11-06T02:53:48;9.80;99.90
43524;DHT22;29120;52.006;6.020;2022-11-06T02:56:17;9.80;99.90
43524;DHT22;29120;52.006;6.020;2022-11-06T02:59:10;9.80;99.90
43524;DHT22;29120;52.006;6.020;2022-11-06T03:01:42;9.80;99.90
43524;DHT22;29120;52.006;6.020;2022-11-06T03:04:22;9.80;99.90
43524;DHT22;29120;52.006;6.020;2022-11-06T03:06:56;9.80;99.90
43524;DHT22;29120;52.006;6.020;2022-11-06T03:09:27;9.80;99.90
43524;DHT22;29120;52.006;6.020;2022-11-06T03:12:00;9.80;99.90
43524;DHT22;29120;52.006;6.020;2022-11-06T03:14:33;9.80;99.90
43524;DHT22;29120;52.006;6.020;2022-11-06T03:17:10;9.80;99.90
43524;DHT22;29120;52.006;6.020;2022-11-06T03:25:30;9.90;99.90
43524;DHT22;29120;52.006;6.020;2022-11-06T03:28:02;9.90;99.90
43524;DHT22;29120;52.006;6.020;2022-11-06T03:30:33;9.90;99.90
43524;DHT22;29120;52.006;6.020;2022-11-06T03:33:18;9.90;99.90
43524;DHT22;29120;52.006;6.020;2022-11-06T03:35:48;9.90;99.90
43524;DHT22;29120;52.006;6.020;2022-11-06T03:38:39;9.90;99.90
43524;DHT22;29120;52.006;6.020;2022-11-06T03:41:23;9.90;99.90
43524;DHT22;29120;52.006;6.020;2022-11-06T03:43:50;9.90;99.90
43524;DHT22;29120;52.006;6.020;2022-11-06T03:46:19;9.90;99.90
43524;DHT22;29120;52.006;6.020;2022-11-06T03:48:53;9.90;99.90
43524;DHT22;29120;52.006;6.020;2022-11-06T03:51:29;9.90;99.90
43524;DHT22;29120;52.006;6.020;2022-11-06T03:54:19;10.00;99.90
43524;DHT22;29120;52.006;6.020;2022-11-06T03:56:54;10.00;99.90
43524;DHT22;29120;52.006;6.020;2022-11-06T03:59:27;10.00;99.90
43524;DHT22;29120;52.006;6.020;2022-11-06T04:01:54;10.00;99.90
43524;DHT22;29120;52.006;6.020;2022-11-06T04:04:33;10.00;99.90
43524;DHT22;29120;52.006;6.020;2022-11-06T04:07:04;10.00;99.90
43524;DHT22;29120;52.006;6.020;2022-11-06T04:09:34;10.00;99.90
43524;DHT22;29120;52.006;6.020;2022-11-06T04:12:23;10.00;99.90
43524;DHT22;29120;52.006;6.020;2022-11-06T04:15:14;10.00;99.90
43524;DHT22;29120;52.006;6.020;2022-11-06T04:17:41;10.10;99.90
43524;DHT22;29120;52.006;6.020;2022-11-06T04:20:11;10.10;99.90
43524;DHT22;29120;52.006;6.020;2022-11-06T04:23:05;10.10;99.90
43524;DHT22;29120;52.006;6.020;2022-11-06T04:25:33;10.10;99.90
43524;DHT22;29120;52.006;6.020;2022-11-06T04:31:27;10.10;99.90
43524;DHT22;29120;52.006;6.020;2022-11-06T04:34:03;10.10;99.90
43524;DHT22;29120;52.006;6.020;2022-11-06T04:44:40;10.20;99.90
43524;DHT22;29120;52.006;6.020;2022-11-06T04:47:11;10.20;99.90
43524;DHT22;29120;52.006;6.020;2022-11-06T04:49:40;10.20;99.90
43524;DHT22;29120;52.006;6.020;2022-11-06T04:52:10;10.20;99.90
43524;DHT22;29120;52.006;6.020;2022-11-06T04:54:37;10.30;99.90
43524;DHT22;29120;52.006;6.020;2022-11-06T04:57:03;10.20;99.90
43524;DHT22;29120;52.006;6.020;2022-11-06T04:59:31;10.20;99.90
43524;DHT22;29120;52.006;6.020;2022-11-06T05:01:58;10.20;99.90
43524;DHT22;29120;52.006;6.020;2022-11-06T05:04:23;10.20;99.90
43524;DHT22;29120;52.006;6.020;2022-11-06T05:06:49;10.20;99.90
43524;DHT22;29120;52.006;6.020;2022-11-06T05:09:14;10.10;99.90
43524;DHT22;29120;52.006;6.020;2022-11-06T05:11:40;10.10;99.90
43524;DHT22;29120;52.006;6.020;2022-11-06T05:14:05;10.10;99.90
43524;DHT22;29120;52.006;6.020;2022-11-06T05:16:31;10.10;99.90
43524;DHT22;29120;52.006;6.020;2022-11-06T05:18:57;10.10;99.90
43524;DHT22;29120;52.006;6.020;2022-11-06T05:21:22;10.00;99.90
43524;DHT22;29120;52.006;6.020;2022-11-06T05:24:06;10.00;99.90
43524;DHT22;29120;52.006;6.020;2022-11-06T05:26:32;9.90;99.90
43524;DHT22;29120;52.006;6.020;2022-11-06T05:28:57;9.90;99.90
43524;DHT22;29120;52.006;6.020;2022-11-06T05:31:24;9.90;99.90
43524;DHT22;29120;52.006;6.020;2022-11-06T05:33:50;10.00;99.90
43524;DHT22;29120;52.006;6.020;2022-11-06T05:36:15;10.00;99.90
43524;DHT22;29120;52.006;6.020;2022-11-06T05:38:41;10.10;99.90
43524;DHT22;29120;52.006;6.020;2022-11-06T05:41:06;10.10;99.90
43524;DHT22;29120;52.006;6.020;2022-11-06T05:43:32;10.10;99.90
43524;DHT22;29120;52.006;6.020;2022-11-06T05:45:58;10.20;99.90
43524;DHT22;29120;52.006;6.020;2022-11-06T05:48:25;10.10;99.90
43524;DHT22;29120;52.006;6.020;2022-11-06T05:50:51;10.10;99.90
43524;DHT22;29120;52.006;6.020;2022-11-06T05:53:17;10.20;99.90
43524;DHT22;29120;52.006;6.020;2022-11-06T05:55:45;10.20;99.90
43524;DHT22;29120;52.006;6.020;2022-11-06T05:58:11;10.20;99.90
43524;DHT22;29120;52.006;6.020;2022-11-06T06:00:37;10.20;99.90
43524;DHT22;29120;52.006;6.020;2022-11-06T06:03:02;10.20;99.90
43524;DHT22;29120;52.006;6.020;2022-11-06T06:05:28;10.30;99.90
43524;DHT22;29120;52.006;6.020;2022-11-06T06:07:54;10.30;99.90
43524;DHT22;29120;52.006;6.020;2022-11-06T06:10:19;10.30;99.90
43524;DHT22;29120;52.006;6.020;2022-11-06T06:12:45;10.30;99.90
43524;DHT22;29120;52.006;6.020;2022-11-06T06:15:10;10.40;99.90
43524;DHT22;29120;52.006;6.020;2022-11-06T06:17:38;10.40;99.90
43524;DHT22;29120;52.006;6.020;2022-11-06T06:20:04;10.40;99.90
43524;DHT22;29120;52.006;6.020;2022-11-06T06:22:30;10.40;99.90
43524;DHT22;29120;52.006;6.020;2022-11-06T06:24:55;10.40;99.90
43524;DHT22;29120;52.006;6.020;2022-11-06T06:27:21;10.40;99.90
43524;DHT22;29120;52.006;6.020;2022-11-06T06:29:46;10.40;99.90
43524;DHT22;29120;52.006;6.020;2022-11-06T06:32:12;10.40;99.90
43524;DHT22;29120;52.006;6.020;2022-11-06T06:34:37;10.40;99.90
43524;DHT22;29120;52.006;6.020;2022-11-06T06:37:03;10.50;99.90
43524;DHT22;29120;52.006;6.020;2022-11-06T06:39:29;10.50;99.90
43524;DHT22;29120;52.006;6.020;2022-11-06T06:41:55;10.40;99.90
43524;DHT22;29120;52.006;6.020;2022-11-06T06:44:21;10.50;99.90
43524;DHT22;29120;52.006;6.020;2022-11-06T06:46:46;10.50;99.90
43524;DHT22;29120;52.006;6.020;2022-11-06T06:49:12;10.50;99.90
43524;DHT22;29120;52.006;6.020;2022-11-06T06:51:37;10.50;99.90
43524;DHT22;29120;52.006;6.020;2022-11-06T06:54:03;10.50;99.90
43524;DHT22;29120;52.006;6.020;2022-11-06T06:56:28;10.50;99.90
43524;DHT22;29120;52.006;6.020;2022-11-06T06:58:54;10.50;99.90
43524;DHT22;29120;52.006;6.020;2022-11-06T07:01:20;10.50;99.90
43524;DHT22;29120;52.006;6.020;2022-11-06T07:03:45;10.60;99.90
43524;DHT22;29120;52.006;6.020;2022-11-06T07:06:11;10.60;99.90
43524;DHT22;29120;52.006;6.020;2022-11-06T07:08:37;10.60;99.90
43524;DHT22;29120;52.006;6.020;2022-11-06T07:11:05;10.50;99.90
43524;DHT22;29120;52.006;6.020;2022-11-06T07:13:31;10.60;99.90
43524;DHT22;29120;52.006;6.020;2022-11-06T07:15:56;10.60;99.90
43524;DHT22;29120;52.006;6.020;2022-11-06T07:18:22;10.60;99.90
43524;DHT22;29120;52.006;6.020;2022-11-06T07:20:50;10.60;99.90
43524;DHT22;29120;52.006;6.020;2022-11-06T07:23:15;10.70;99.90
43524;DHT22;29120;52.006;6.020;2022-11-06T07:25:41;10.70;99.90
43524;DHT22;29120;52.006;6.020;2022-11-06T07:28:07;10.70;99.90
43524;DHT22;29120;52.006;6.020;2022-11-06T07:30:34;10.70;99.90
43524;DHT22;29120;52.006;6.020;2022-11-06T07:33:03;10.80;99.90
43524;DHT22;29120;52.006;6.020;2022-11-06T07:35:29;10.90;99.90
43524;DHT22;29120;52.006;6.020;2022-11-06T07:37:55;10.90;99.90
43524;DHT22;29120;52.006;6.020;2022-11-06T07:40:21;11.00;99.90
43524;DHT22;29120;52.006;6.020;2022-11-06T07:42:46;11.00;99.80
43524;DHT22;29120;52.006;6.020;2022-11-06T07:45:12;11.10;99.80
43524;DHT22;29120;52.006;6.020;2022-11-06T07:47:38;11.10;99.70
43524;DHT22;29120;52.006;6.020;2022-11-06T07:50:04;11.10;99.90
43524;DHT22;29120;52.006;6.020;2022-11-06T07:52:30;11.10;99.70
43524;DHT22;29120;52.006;6.020;2022-11-06T07:54:55;11.20;99.70
43524;DHT22;29120;52.006;6.020;2022-11-06T07:57:21;11.20;99.60
43524;DHT22;29120;52.006;6.020;2022-11-06T07:59:46;11.20;99.50
43524;DHT22;29120;52.006;6.020;2022-11-06T08:02:12;11.20;99.50
43524;DHT22;29120;52.006;6.020;2022-11-06T08:04:38;11.20;99.40
43524;DHT22;29120;52.006;6.020;2022-11-06T08:07:04;11.20;99.40
43524;DHT22;29120;52.006;6.020;2022-11-06T08:09:30;11.30;99.40
43524;DHT22;29120;52.006;6.020;2022-11-06T08:11:55;11.30;99.30
43524;DHT22;29120;52.006;6.020;2022-11-06T08:14:21;11.30;99.30
43524;DHT22;29120;52.006;6.020;2022-11-06T08:16:47;11.30;99.30
43524;DHT22;29120;52.006;6.020;2022-11-06T08:19:12;11.30;99.20
43524;DHT22;29120;52.006;6.020;2022-11-06T08:21:38;11.40;99.20
43524;DHT22;29120;52.006;6.020;2022-11-06T08:24:04;11.40;99.10
43524;DHT22;29120;52.006;6.020;2022-11-06T08:26:31;11.40;99.10
43524;DHT22;29120;52.006;6.020;2022-11-06T08:28:56;11.40;99.00
43524;DHT22;29120;52.006;6.020;2022-11-06T08:31:23;11.50;99.00
43524;DHT22;29120;52.006;6.020;2022-11-06T08:33:49;11.50;98.90
43524;DHT22;29120;52.006;6.020;2022-11-06T08:36:14;11.60;98.90
43524;DHT22;29120;52.006;6.020;2022-11-06T08:38:41;11.60;98.90
43524;DHT22;29120;52.006;6.020;2022-11-06T08:41:08;11.70;98.70
43524;DHT22;29120;52.006;6.020;2022-11-06T08:43:35;11.70;98.50
43524;DHT22;29120;52.006;6.020;2022-11-06T08:46:01;11.70;98.40
43524;DHT22;29120;52.006;6.020;2022-11-06T08:48:27;11.70;98.50
43524;DHT22;29120;52.006;6.020;2022-11-06T08:50:53;11.80;98.40
43524;DHT22;29120;52.006;6.020;2022-11-06T08:53:18;11.70;98.20
43524;DHT22;29120;52.006;6.020;2022-11-06T08:55:44;11.70;98.30
43524;DHT22;29120;52.006;6.020;2022-11-06T08:58:09;11.70;98.40
43524;DHT22;29120;52.006;6.020;2022-11-06T09:00:36;11.70;98.40
43524;DHT22;29120;52.006;6.020;2022-11-06T09:03:11;11.70;98.30
43524;DHT22;29120;52.006;6.020;2022-11-06T09:05:41;11.70;98.20
43524;DHT22;29120;52.006;6.020;2022-11-06T09:08:08;11.70;98.20
43524;DHT22;29120;52.006;6.020;2022-11-06T09:10:36;11.80;98.20
43524;DHT22;29120;52.006;6.020;2022-11-06T09:13:01;11.80;98.10
43524;DHT22;29120;52.006;6.020;2022-11-06T09:15:27;11.90;98.00
43524;DHT22;29120;52.006;6.020;2022-11-06T09:17:53;12.00;97.90
43524;DHT22;29120;52.006;6.020;2022-11-06T09:20:20;12.10;97.80
43524;DHT22;29120;52.006;6.020;2022-11-06T09:22:46;12.10;97.70
43524;DHT22;29120;52.006;6.020;2022-11-06T09:25:12;12.10;97.50
43524;DHT22;29120;52.006;6.020;2022-11-06T09:27:49;12.00;97.50
43524;DHT22;29120;52.006;6.020;2022-11-06T09:30:18;12.00;97.60
43524;DHT22;29120;52.006;6.020;2022-11-06T09:32:46;12.10;97.60
43524;DHT22;29120;52.006;6.020;2022-11-06T09:35:12;12.20;97.50
43524;DHT22;29120;52.006;6.020;2022-11-06T09:37:38;12.40;97.40
43524;DHT22;29120;52.006;6.020;2022-11-06T09:40:03;12.60;97.30
43524;DHT22;29120;52.006;6.020;2022-11-06T09:45:28;12.80;96.90
43524;DHT22;29120;52.006;6.020;2022-11-06T09:48:02;12.80;96.70
43524;DHT22;29120;52.006;6.020;2022-11-06T09:50:32;12.80;96.50
43524;DHT22;29120;52.006;6.020;2022-11-06T09:53:42;12.90;96.40
43524;DHT22;29120;52.006;6.020;2022-11-06T09:56:09;13.00;96.20
43524;DHT22;29120;52.006;6.020;2022-11-06T09:58:40;13.00;96.20
43524;DHT22;29120;52.006;6.020;2022-11-06T10:01:17;13.00;96.10
43524;DHT22;29120;52.006;6.020;2022-11-06T10:03:58;13.00;96.10
43524;DHT22;29120;52.006;6.020;2022-11-06T10:06:26;12.90;96.20
43524;DHT22;29120;52.006;6.020;2022-11-06T10:09:00;12.90;96.20
43524;DHT22;29120;52.006;6.020;2022-11-06T10:14:46;12.90;96.10
43524;DHT22;29120;52.006;6.020;2022-11-06T10:20:20;12.90;96.00
43524;DHT22;29120;52.006;6.020;2022-11-06T10:23:01;12.90;95.80
43524;DHT22;29120;52.006;6.020;2022-11-06T10:28:39;12.90;95.80
43524;DHT22;29120;52.006;6.020;2022-11-06T10:33:57;12.90;95.70
43524;DHT22;29120;52.006;6.020;2022-11-06T10:36:54;12.90;95.30
43524;DHT22;29120;52.006;6.020;2022-11-06T10:39:25;12.90;95.40
43524;DHT22;29120;52.006;6.020;2022-11-06T10:42:01;12.90;95.40
43524;DHT22;29120;52.006;6.020;2022-11-06T10:44:32;13.00;95.40
43524;DHT22;29120;52.006;6.020;2022-11-06T10:47:14;13.10;95.40
43524;DHT22;29120;52.006;6.020;2022-11-06T10:49:50;13.20;95.30
43524;DHT22;29120;52.006;6.020;2022-11-06T10:57:49;13.30;94.60
43524;DHT22;29120;52.006;6.020;2022-11-06T11:00:16;13.30;94.60
43524;DHT22;29120;52.006;6.020;2022-11-06T11:02:57;13.50;94.50
43524;DHT22;29120;52.006;6.020;2022-11-06T11:05:31;13.70;94.10
43524;DHT22;29120;52.006;6.020;2022-11-06T11:07:58;13.90;93.70
43524;DHT22;29120;52.006;6.020;2022-11-06T11:10:25;14.30;93.30
43524;DHT22;29120;52.006;6.020;2022-11-06T11:12:56;14.60;92.90
43524;DHT22;29120;52.006;6.020;2022-11-06T11:15:31;14.90;92.50
43524;DHT22;29120;52.006;6.020;2022-11-06T11:18:18;14.90;92.20
43524;DHT22;29120;52.006;6.020;2022-11-06T11:20:48;14.70;91.60
43524;DHT22;29120;52.006;6.020;2022-11-06T11:23:22;14.50;91.70
43524;DHT22;29120;52.006;6.020;2022-11-06T11:25:56;14.20;92.60
43524;DHT22;29120;52.006;6.020;2022-11-06T11:28:31;14.10;92.40
43524;DHT22;29120;52.006;6.020;2022-11-06T11:31:09;13.90;92.40
43524;DHT22;29120;52.006;6.020;2022-11-06T11:33:37;13.70;92.50
43524;DHT22;29120;52.006;6.020;2022-11-06T11:36:04;13.60;92.70
43524;DHT22;29120;52.006;6.020;2022-11-06T11:38:33;13.60;92.70
43524;DHT22;29120;52.006;6.020;2022-11-06T11:43:43;13.60;92.60
43524;DHT22;29120;52.006;6.020;2022-11-06T11:46:20;13.60;92.60
43524;DHT22;29120;52.006;6.020;2022-11-06T11:48:50;13.50;92.40
43524;DHT22;29120;52.006;6.020;2022-11-06T11:51:36;13.50;92.50
43524;DHT22;29120;52.006;6.020;2022-11-06T11:56:47;13.70;92.50
43524;DHT22;29120;52.006;6.020;2022-11-06T11:59:20;13.80;92.00
43524;DHT22;29120;52.006;6.020;2022-11-06T12:01:46;13.70;91.60
43524;DHT22;29120;52.006;6.020;2022-11-06T12:04:30;13.80;91.50
43524;DHT22;29120;52.006;6.020;2022-11-06T12:07:03;13.90;91.30
43524;DHT22;29120;52.006;6.020;2022-11-06T12:09:43;14.00;90.80
43524;DHT22;29120;52.006;6.020;2022-11-06T12:12:38;13.80;90.90
43524;DHT22;29120;52.006;6.020;2022-11-06T12:17:37;13.70;91.10
43524;DHT22;29120;52.006;6.020;2022-11-06T12:20:10;13.80;91.10
43524;DHT22;29120;52.006;6.020;2022-11-06T12:22:41;13.90;90.90
43524;DHT22;29120;52.006;6.020;2022-11-06T12:25:49;13.90;91.00
43524;DHT22;29120;52.006;6.020;2022-11-06T12:28:16;13.90;90.90
43524;DHT22;29120;52.006;6.020;2022-11-06T12:30:47;13.80;91.10
43524;DHT22;29120;52.006;6.020;2022-11-06T12:33:20;13.70;91.60
43524;DHT22;29120;52.006;6.020;2022-11-06T12:38:45;13.60;91.30
43524;DHT22;29120;52.006;6.020;2022-11-06T12:41:30;13.50;91.10
43524;DHT22;29120;52.006;6.020;2022-11-06T12:43:56;13.40;91.30
43524;DHT22;29120;52.006;6.020;2022-11-06T12:49:27;13.30;91.60
43524;DHT22;29120;52.006;6.020;2022-11-06T12:52:28;13.30;91.70
43524;DHT22;29120;52.006;6.020;2022-11-06T12:55:08;13.30;91.80
43524;DHT22;29120;52.006;6.020;2022-11-06T12:57:37;13.30;91.70
43524;DHT22;29120;52.006;6.020;2022-11-06T13:00:20;13.20;91.70
43524;DHT22;29120;52.006;6.020;2022-11-06T13:05:32;13.20;91.80
43524;DHT22;29120;52.006;6.020;2022-11-06T13:11:35;13.20;91.80
43524;DHT22;29120;52.006;6.020;2022-11-06T13:16:46;13.30;91.90
43524;DHT22;29120;52.006;6.020;2022-11-06T13:22:57;13.30;91.70
43524;DHT22;29120;52.006;6.020;2022-11-06T13:28:07;13.30;91.90
43524;DHT22;29120;52.006;6.020;2022-11-06T13:30:37;13.20;91.70
43524;DHT22;29120;52.006;6.020;2022-11-06T13:33:13;13.20;91.70
43524;DHT22;29120;52.006;6.020;2022-11-06T13:35:42;13.20;91.70
43524;DHT22;29120;52.006;6.020;2022-11-06T13:38:13;13.20;91.70
43524;DHT22;29120;52.006;6.020;2022-11-06T13:40:42;13.20;91.80
43524;DHT22;29120;52.006;6.020;2022-11-06T13:45:57;13.20;91.50
43524;DHT22;29120;52.006;6.020;2022-11-06T13:54:03;13.20;91.70
43524;DHT22;29120;52.006;6.020;2022-11-06T13:56:46;13.20;91.50
43524;DHT22;29120;52.006;6.020;2022-11-06T14:01:59;13.10;91.40
43524;DHT22;29120;52.006;6.020;2022-11-06T14:07:31;13.00;91.30
43524;DHT22;29120;52.006;6.020;2022-11-06T14:09:58;13.00;91.40
43524;DHT22;29120;52.006;6.020;2022-11-06T14:12:23;13.00;91.50
43524;DHT22;29120;52.006;6.020;2022-11-06T14:14:51;13.00;91.40
43524;DHT22;29120;52.006;6.020;2022-11-06T14:17:23;13.00;91.40
43524;DHT22;29120;52.006;6.020;2022-11-06T14:24:50;12.90;91.30
43524;DHT22;29120;52.006;6.020;2022-11-06T14:30:03;12.90;91.30
43524;DHT22;29120;52.006;6.020;2022-11-06T14:34:55;12.80;91.50
43524;DHT22;29120;52.006;6.020;2022-11-06T14:42:17;12.60;91.60
43524;DHT22;29120;52.006;6.020;2022-11-06T14:44:45;12.50;91.90
43524;DHT22;29120;52.006;6.020;2022-11-06T14:50:26;12.30;92.30
43524;DHT22;29120;52.006;6.020;2022-11-06T14:53:05;12.10;92.90
43524;DHT22;29120;52.006;6.020;2022-11-06T14:55:41;11.90;93.50
43524;DHT22;29120;52.006;6.020;2022-11-06T14:58:18;11.80;93.90
43524;DHT22;29120;52.006;6.020;2022-11-06T15:01:10;11.70;94.40
43524;DHT22;29120;52.006;6.020;2022-11-06T15:03:56;11.50;94.60
43524;DHT22;29120;52.006;6.020;2022-11-06T15:11:58;11.00;96.20
43524;DHT22;29120;52.006;6.020;2022-11-06T15:16:50;10.70;97.30
43524;DHT22;29120;52.006;6.020;2022-11-06T15:22:20;10.30;98.10
43524;DHT22;29120;52.006;6.020;2022-11-06T15:24:58;10.30;98.50
43524;DHT22;29120;52.006;6.020;2022-11-06T15:27:31;10.20;99.00
43524;DHT22;29120;52.006;6.020;2022-11-06T15:30:01;10.10;99.40
43524;DHT22;29120;52.006;6.020;2022-11-06T15:32:30;10.10;99.80
43524;DHT22;29120;52.006;6.020;2022-11-06T15:35:10;10.10;99.80
43524;DHT22;29120;52.006;6.020;2022-11-06T15:37:42;10.10;99.90
43524;DHT22;29120;52.006;6.020;2022-11-06T15:40:30;10.00;99.90
43524;DHT22;29120;52.006;6.020;2022-11-06T15:43:00;9.90;99.90
43524;DHT22;29120;52.006;6.020;2022-11-06T15:45:30;9.90;99.90
43524;DHT22;29120;52.006;6.020;2022-11-06T15:48:01;9.80;99.90
43524;DHT22;29120;52.006;6.020;2022-11-06T15:50:29;9.70;99.90
43524;DHT22;29120;52.006;6.020;2022-11-06T15:55:41;9.60;99.90
43524;DHT22;29120;52.006;6.020;2022-11-06T16:00:43;9.40;99.90
43524;DHT22;29120;52.006;6.020;2022-11-06T16:03:15;9.40;99.90
43524;DHT22;29120;52.006;6.020;2022-11-06T16:05:42;9.40;99.90
43524;DHT22;29120;52.006;6.020;2022-11-06T16:08:11;9.40;99.90
43524;DHT22;29120;52.006;6.020;2022-11-06T16:10:37;9.40;99.90
43524;DHT22;29120;52.006;6.020;2022-11-06T16:13:03;9.40;99.90
43524;DHT22;29120;52.006;6.020;2022-11-06T16:20:38;9.30;99.90
43524;DHT22;29120;52.006;6.020;2022-11-06T16:23:04;9.20;99.90
43524;DHT22;29120;52.006;6.020;2022-11-06T16:25:30;9.30;99.90
43524;DHT22;29120;52.006;6.020;2022-11-06T16:27:55;9.20;99.90
43524;DHT22;29120;52.006;6.020;2022-11-06T16:30:22;9.20;99.90
43524;DHT22;29120;52.006;6.020;2022-11-06T16:32:47;9.20;99.90
43524;DHT22;29120;52.006;6.020;2022-11-06T16:35:34;9.10;99.90
43524;DHT22;29120;52.006;6.020;2022-11-06T16:38:27;9.10;99.90
43524;DHT22;29120;52.006;6.020;2022-11-06T16:40:53;9.10;99.90
43524;DHT22;29120;52.006;6.020;2022-11-06T16:43:20;9.00;99.90
43524;DHT22;29120;52.006;6.020;2022-11-06T16:48:25;9.00;99.90
43524;DHT22;29120;52.006;6.020;2022-11-06T16:50:54;9.00;99.90
43524;DHT22;29120;52.006;6.020;2022-11-06T16:53:24;9.00;99.90
43524;DHT22;29120;52.006;6.020;2022-11-06T16:55:55;8.90;99.90
43524;DHT22;29120;52.006;6.020;2022-11-06T16:58:22;8.90;99.90
43524;DHT22;29120;52.006;6.020;2022-11-06T17:01:14;8.80;99.90
43524;DHT22;29120;52.006;6.020;2022-11-06T17:03:54;8.80;99.90
43524;DHT22;29120;52.006;6.020;2022-11-06T17:06:27;8.90;99.90
43524;DHT22;29120;52.006;6.020;2022-11-06T17:09:28;8.80;99.90
43524;DHT22;29120;52.006;6.020;2022-11-06T17:11:56;8.80;99.90
43524;DHT22;29120;52.006;6.020;2022-11-06T17:14:23;8.80;99.90
43524;DHT22;29120;52.006;6.020;2022-11-06T17:16:57;8.90;99.90
43524;DHT22;29120;52.006;6.020;2022-11-06T17:19:23;8.90;99.90
43524;DHT22;29120;52.006;6.020;2022-11-06T17:21:49;8.90;99.90
43524;DHT22;29120;52.006;6.020;2022-11-06T17:24:16;8.90;99.90
43524;DHT22;29120;52.006;6.020;2022-11-06T17:26:59;9.00;99.90
43524;DHT22;29120;52.006;6.020;2022-11-06T17:29:25;9.00;99.90
43524;DHT22;29120;52.006;6.020;2022-11-06T17:31:50;9.00;99.90
43524;DHT22;29120;52.006;6.020;2022-11-06T17:34:16;9.00;99.90
43524;DHT22;29120;52.006;6.020;2022-11-06T17:36:42;9.00;99.90
43524;DHT22;29120;52.006;6.020;2022-11-06T17:39:07;9.00;99.90
43524;DHT22;29120;52.006;6.020;2022-11-06T17:41:33;9.00;99.90
43524;DHT22;29120;52.006;6.020;2022-11-06T17:44:12;9.00;99.90
43524;DHT22;29120;52.006;6.020;2022-11-06T17:46:43;9.00;99.90
43524;DHT22;29120;52.006;6.020;2022-11-06T17:49:11;9.00;99.90
43524;DHT22;29120;52.006;6.020;2022-11-06T17:51:37;9.00;99.90
43524;DHT22;29120;52.006;6.020;2022-11-06T17:54:18;9.00;99.90
43524;DHT22;29120;52.006;6.020;2022-11-06T17:56:44;9.00;99.90
43524;DHT22;29120;52.006;6.020;2022-11-06T17:59:11;9.00;99.90
43524;DHT22;29120;52.006;6.020;2022-11-06T18:01:37;9.00;99.90
43524;DHT22;29120;52.006;6.020;2022-11-06T18:04:03;8.90;99.90
43524;DHT22;29120;52.006;6.020;2022-11-06T18:06:29;8.90;99.90
43524;DHT22;29120;52.006;6.020;2022-11-06T18:08:59;8.90;99.90